Flight Track Log - Related Links

Times and Time Zones

All times are in EDT time to prevent confusion due to time zone crossing. See the UAL1719 flight status page for this flight to view local times or setup timezone preferences in your user account.

Time Position Orientation Groundspeed Altitude Reporting Facility
EDT Latitude Longitude Course Direction KTS MPH feet Rate Location/Type
Tue 12:12:46 AM 37.6300 -122.3680 27° Northeast 171 197 200  Level FlightAware ADS-B
Tue 12:12:51 AM 37.6335 -122.3660 25° Northeast 164 189 500 4,200 Climbing FlightAware ADS-B
Tue 12:12:56 AM 37.6369 -122.3650 20° North 158 182 900 3,750 Climbing FlightAware ADS-B
Tue 12:12:59 AM 37.6390 -122.3640 15° North 155 178 1,000 3,000 Climbing FlightAware ADS-B
Tue 12:13:06 AM 37.6440 -122.3630 North 158 182 1,400 2,727 Climbing FlightAware ADS-B
Tue 12:13:10 AM 37.6465 -122.3630 355° North 167 192 1,500 1,714 Climbing FlightAware ADS-B
Tue 12:13:20 AM 37.6546 -122.3650 348° North 181 208 1,800 1,714 Climbing FlightAware ADS-B
Tue 12:13:31 AM 37.6642 -122.3690 335° Northwest 203 234 2,100 2,348 Climbing FlightAware ADS-B
Tue 12:13:43 AM 37.6735 -122.3790 310° West 220 253 2,700 3,000 Climbing FlightAware ADS-B
Tue 12:13:49 AM 37.6765 -122.3848 299° West 221 254 3,000 3,750 Climbing FlightAware ADS-B
Tue 12:13:51 AM 37.6776 -122.3880 295° West 219 252 3,200 4,800 Climbing FlightAware ADS-B
Tue 12:13:54 AM 37.6787 -122.3910 292° West 219 252 3,400 3,529 Climbing FlightAware ADS-B
Tue 12:14:08 AM 37.6842 -122.4070 293° West 231 266 4,200 3,310 Climbing FlightAware ADS-B
Tue 12:14:23 AM 37.6876 -122.4277 263° West 261 300 5,000 2,927 Climbing FlightAware ADS-B
Tue 12:14:49 AM 37.6752 -122.4633 225° Southwest 263 303 6,200 3,000 Climbing FlightAware ADS-B
Tue 12:14:51 AM 37.6730 -122.4660 225° Southwest 262 302 6,400 3,000 Climbing FlightAware ADS-B
Tue 12:14:57 AM 37.6674 -122.4700 213° Southwest 266 306 6,600 2,667 Climbing FlightAware ADS-B
Tue 12:15:00 AM 37.6637 -122.4720 206° Southwest 270 311 6,800 3,000 Climbing FlightAware ADS-B
Tue 12:15:05 AM 37.6576 -122.4750 196° South 275 316 7,000 3,000 Climbing FlightAware ADS-B
Tue 12:15:08 AM 37.6543 -122.4759 190° South 279 321 7,200 2,400 Climbing FlightAware ADS-B
Tue 12:15:10 AM 37.6515 -122.4760 188° South 279 321 7,200 3,000 Level FlightAware ADS-B
Tue 12:15:18 AM 37.6403 -122.4770 178° South 283 326 7,700 4,125 Climbing FlightAware ADS-B
Tue 12:15:26 AM 37.6298 -122.4760 176° South 287 330 8,300 4,000 Climbing FlightAware ADS-B
Tue 12:15:33 AM 37.6204 -122.4750 176° South 285 328 8,700 4,500 Climbing FlightAware ADS-B
Tue 12:15:42 AM 37.6099 -122.4744 175° South 277 319 9,500 4,258 Climbing FlightAware ADS-B
Tue 12:16:04 AM 37.5814 -122.4720 176° South 280 322 10,900 3,073 Climbing FlightAware ADS-B
Tue 12:16:23 AM 37.5617 -122.4698 175° South 306 352 11,600 2,000 Climbing FlightAware ADS-B (EPLL / LCJ)
Tue 12:16:31 AM 37.5442 -122.4680 175° South 318 366 11,800 2,000 Climbing FlightAware ADS-B
Tue 12:16:44 AM 37.5237 -122.4640 171° South 331 381 12,300 2,471 Climbing FlightAware ADS-B
Tue 12:16:48 AM 37.5186 -122.4630 167° South 335 386 12,500 2,182 Climbing FlightAware ADS-B
Tue 12:16:55 AM 37.5083 -122.4590 158° South 343 395 12,700 2,000 Climbing FlightAware ADS-B
Tue 12:17:00 AM 37.5006 -122.4540 151° Southeast 348 400 12,900 2,667 Climbing FlightAware ADS-B
Tue 12:17:04 AM 37.4955 -122.4500 145° Southeast 353 406 13,100 2,571 Climbing FlightAware ADS-B
Tue 12:17:07 AM 37.4916 -122.4460 141° Southeast 356 410 13,200 1,714 Climbing FlightAware ADS-B
Tue 12:17:11 AM 37.4866 -122.4400 136° Southeast 361 415 13,300 2,182 Climbing FlightAware ADS-B
Tue 12:17:18 AM 37.5144 -122.4617 132° Southeast 366 421 13,600 3,000 Climbing FlightAware ADS-B (EPLL / LCJ)
Tue 12:17:41 AM 37.4527 -122.3910 129° Southeast 375 432 14,800 3,000 Climbing FlightAware ADS-B
Tue 12:17:50 AM 37.4427 -122.3756 130° Southeast 381 438 15,200 2,600 Climbing FlightAware ADS-B (EPLL / LCJ)
Tue 12:18:11 AM 37.4179 -122.3400 132° Southeast 392 451 16,100 2,308 Climbing FlightAware ADS-B
Tue 12:18:29 AM 37.4256 -122.3508 132° Southeast 390 449 16,700 2,323 Climbing FlightAware ADS-B (EPLL / LCJ)
Tue 12:18:42 AM 37.3795 -122.2890 133° Southeast 408 470 17,300 3,059 Climbing FlightAware ADS-B
Tue 12:19:20 AM 37.3299 -122.2200 132° Southeast 413 475 19,300 3,429 Climbing FlightAware ADS-B
Tue 12:19:24 AM 37.3262 -122.2150 132° Southeast 414 476 19,700 2,516 Climbing FlightAware ADS-B (EPLL / LCJ)
Tue 12:19:51 AM 37.2899 -122.1650 132° Southeast 423 487 20,600 2,108 Climbing FlightAware ADS-B
Tue 12:20:01 AM 37.2769 -122.1469 132° Southeast 424 488 21,000 2,250 Climbing FlightAware ADS-B (KSAC)
Tue 12:20:23 AM 37.2477 -122.1070 132° Southeast 434 499 21,800 2,233 Climbing FlightAware ADS-B
Tue 12:20:44 AM 37.2267 -122.0778 132° Southeast 441 507 22,600 2,276 Climbing FlightAware ADS-B (KSAC)
Tue 12:21:21 AM 37.1674 -121.9966 132° Southeast 451 519 24,000 2,250 Climbing FlightAware ADS-B (EPLL / LCJ)
Tue 12:21:24 AM 37.1632 -121.9910 132° Southeast 451 519 24,100 2,000 Climbing FlightAware ADS-B
Tue 12:21:54 AM 37.1195 -121.9310 132° Southeast 457 526 25,100 2,108 Climbing FlightAware ADS-B
Tue 12:22:01 AM 37.1109 -121.9193 132° Southeast 459 528 25,400 2,000 Climbing FlightAware ADS-B (KSAC)
Tue 12:22:27 AM 37.0728 -121.8670 132° Southeast 464 534 26,200 1,821 Climbing FlightAware ADS-B
Tue 12:22:57 AM 37.0286 -121.8070 132° Southeast 469 540 27,100 1,941 Climbing FlightAware ADS-B
Tue 12:23:01 AM 37.0398 -121.8224 132° Southeast 460 529 27,300 1,957 Climbing FlightAware ADS-B (KSAC)
Tue 12:23:43 AM 36.9636 -121.7188 132° Southeast 473 544 28,600 1,875 Climbing FlightAware ADS-B (KSAC)
Tue 12:23:49 AM 36.9521 -121.7030 133° Southeast 472 543 28,800 2,333 Climbing FlightAware ADS-B
Tue 12:24:19 AM 36.9079 -121.6430 133° Southeast 469 540 30,000 2,211 Climbing FlightAware ADS-B
Tue 12:24:46 AM 36.8710 -121.5933 133° Southeast 466 536 30,900 2,000 Climbing FlightAware ADS-B (EPLL / LCJ)
Tue 12:24:49 AM 36.8633 -121.5830 133° Southeast 468 539 31,000 158 Climbing FlightAware ADS-B
Tue 12:25:24 AM 36.8127 -121.5150 133° Southeast 467 537 31,000  Level FlightAware ADS-B
Tue 12:25:55 AM 36.7669 -121.4530 133° Southeast 466 536 31,000  Level FlightAware ADS-B
Tue 12:26:28 AM 36.7191 -121.3890 133° Southeast 465 535 31,000  Level FlightAware ADS-B
Tue 12:27:00 AM 36.6724 -121.3260 133° Southeast 466 536 31,000  Level FlightAware ADS-B
Tue 12:31:03 AM 36.3130 -120.8470 133° Southeast 471 542 31,000  Level FlightAware ADS-B
Tue 12:32:16 AM 36.2042 -120.7040 133° Southeast 470 541 31,000  Level FlightAware ADS-B
Tue 12:32:47 AM 36.1593 -120.6450 133° Southeast 470 541 31,000  Level FlightAware ADS-B
Tue 12:33:31 AM 36.1153 -120.5839 133° Southeast 468 539 31,000  Level Los Angeles Center
Tue 12:34:34 AM 36.0072 -120.4458 134° Southeast 468 539 31,000  Level Oakland Center
Tue 12:35:35 AM 35.9164 -120.3278 134° Southeast 468 539 31,000  Level Oakland Center
Tue 12:36:36 AM 35.8250 -120.2097 134° Southeast 472 543 31,000  Level Oakland Center
Tue 12:37:37 AM 35.7339 -120.0908 133° Southeast 472 543 31,000  Level Oakland Center
Tue 12:38:38 AM 35.6414 -119.9750 134° Southeast 472 543 31,000  Level Oakland Center
Tue 12:39:38 AM 35.5339 -119.8806 144° Southeast 469 540 31,000  Level Los Angeles Center
Tue 12:40:39 AM 35.4267 -119.7881 145° Southeast 469 540 31,000  Level Los Angeles Center
Tue 12:41:40 AM 35.3189 -119.6950 145° Southeast 469 540 31,000  Level Los Angeles Center
Tue 12:42:41 AM 35.2119 -119.6033 145° Southeast 469 540 31,000 -130 Level Los Angeles Center
Tue 12:44:44 AM 34.9972 -119.4200 145° Southeast 469 540 30,600 -424 Descending Los Angeles Center
Tue 12:45:45 AM 34.8886 -119.3269 145° Southeast 471 542 29,700 -984 Descending Los Angeles Center
Tue 12:46:46 AM 34.7817 -119.2347 145° Southeast 471 542 28,600 -2,516 Descending Los Angeles Center
Tue 12:52:59 AM 34.1333 -118.8333 145° Southeast 312 359 11,500 -1,851 Descending Southern California TRACON
Tue 12:58:36 AM 34.0128 -118.4317 83° East 241 277 6,700 -938 Descending FlightAware ADS-B
Tue 12:58:51 AM 34.0146 -118.4118 83° East 244 281 6,000 -2,600 Descending FlightAware ADS-B
Tue 12:59:06 AM 34.0166 -118.3886 84° East 250 288 5,400 -2,368 Descending FlightAware ADS-B
Tue 12:59:29 AM 34.0194 -118.3571 84° East 253 291 4,500 -2,237 Descending FlightAware ADS-B
Tue 01:00:05 AM 34.0243 -118.3069 83° East 254 292 3,200 -1,280 Descending FlightAware ADS-B
Tue 01:00:44 AM 34.0289 -118.2553 84° East 236 272 2,900 -305 Descending FlightAware ADS-B
Tue 01:01:04 AM 34.0315 -118.2278 84° East 232 267 2,900  Level FlightAware ADS-B
Tue 01:02:26 AM 33.9869 -118.1688 207° Southwest 228 262 2,900 -51 Level FlightAware ADS-B
Tue 01:03:01 AM 33.9611 -118.1967 214° Southwest 221 254 2,800 -150 Descending FlightAware ADS-B
Tue 01:03:06 AM 33.9586 -118.2017 242° Southwest 193 222 2,800  Level FlightAware ADS-B
Tue 01:03:17 AM 33.9552 -118.2115 253° West 194 223 2,800 -375 Level FlightAware ADS-B
Tue 01:03:22 AM 33.9541 -118.2169 259° West 197 227 2,700 -1,125 Descending FlightAware ADS-B
Tue 01:03:33 AM 33.9526 -118.2295 264° West 200 230 2,500 -1,241 Descending FlightAware ADS-B
Tue 01:03:51 AM 33.9509 -118.2479 264° West 200 230 2,100 -1,091 Descending FlightAware ADS-B
Tue 01:04:06 AM 33.9491 -118.2662 264° West 200 230 1,900 -800 Descending FlightAware ADS-B
Tue 01:04:21 AM 33.9475 -118.2819 263° West 180 207 1,700 -960 Descending FlightAware ADS-B
Tue 01:04:56 AM 33.9443 -118.3135 263° West 150 173 1,100 -868 Descending FlightAware ADS-B
Tue 01:05:37 AM 33.9410 -118.3462 263° West 138 159 600 -732 Descending FlightAware ADS-B

Login

Don't have an account? Register now (free) for customized features, flight alerts, and more!